sensor_id;sensor_type;location;lat;lon;timestamp;P1;durP1;ratioP1;P2;durP2;ratioP2
25319;SDS011;13256;49.012;8.610;2023-04-25T00:01:38;4.15;;;3.10;;
25319;SDS011;13256;49.012;8.610;2023-04-25T00:04:04;5.05;;;2.88;;
25319;SDS011;13256;49.012;8.610;2023-04-25T00:06:32;4.97;;;2.83;;
25319;SDS011;13256;49.012;8.610;2023-04-25T00:09:02;4.88;;;3.03;;
25319;SDS011;13256;49.012;8.610;2023-04-25T00:11:36;5.80;;;3.33;;
25319;SDS011;13256;49.012;8.610;2023-04-25T00:14:03;5.55;;;3.78;;
25319;SDS011;13256;49.012;8.610;2023-04-25T00:16:32;8.18;;;4.55;;
25319;SDS011;13256;49.012;8.610;2023-04-25T00:19:01;6.13;;;4.07;;
25319;SDS011;13256;49.012;8.610;2023-04-25T00:21:28;5.53;;;3.42;;
25319;SDS011;13256;49.012;8.610;2023-04-25T00:24:00;5.47;;;3.60;;
25319;SDS011;13256;49.012;8.610;2023-04-25T00:39:45;4.10;;;3.00;;
25319;SDS011;13256;49.012;8.610;2023-04-25T00:42:12;3.75;;;2.53;;
25319;SDS011;13256;49.012;8.610;2023-04-25T00:44:39;5.40;;;3.65;;
25319;SDS011;13256;49.012;8.610;2023-04-25T00:47:07;3.97;;;2.80;;
25319;SDS011;13256;49.012;8.610;2023-04-25T00:49:34;3.63;;;2.83;;
25319;SDS011;13256;49.012;8.610;2023-04-25T00:52:01;4.93;;;3.25;;
25319;SDS011;13256;49.012;8.610;2023-04-25T00:57:11;3.50;;;2.58;;
25319;SDS011;13256;49.012;8.610;2023-04-25T00:59:44;3.40;;;2.80;;
25319;SDS011;13256;49.012;8.610;2023-04-25T01:02:14;4.28;;;2.75;;
25319;SDS011;13256;49.012;8.610;2023-04-25T01:04:41;4.43;;;2.15;;
25319;SDS011;13256;49.012;8.610;2023-04-25T01:07:10;3.95;;;2.35;;
25319;SDS011;13256;49.012;8.610;2023-04-25T01:09:39;3.15;;;2.38;;
25319;SDS011;13256;49.012;8.610;2023-04-25T01:17:31;4.18;;;2.42;;
25319;SDS011;13256;49.012;8.610;2023-04-25T01:20:01;4.45;;;2.13;;
25319;SDS011;13256;49.012;8.610;2023-04-25T01:22:36;2.65;;;2.20;;
25319;SDS011;13256;49.012;8.610;2023-04-25T01:25:03;3.13;;;2.05;;
25319;SDS011;13256;49.012;8.610;2023-04-25T01:27:30;3.25;;;2.28;;
25319;SDS011;13256;49.012;8.610;2023-04-25T01:30:01;3.55;;;2.05;;
25319;SDS011;13256;49.012;8.610;2023-04-25T01:32:30;4.53;;;2.28;;
25319;SDS011;13256;49.012;8.610;2023-04-25T01:35:10;4.45;;;2.42;;
25319;SDS011;13256;49.012;8.610;2023-04-25T01:37:38;7.53;;;2.42;;
25319;SDS011;13256;49.012;8.610;2023-04-25T01:40:08;3.33;;;2.47;;
25319;SDS011;13256;49.012;8.610;2023-04-25T01:42:36;4.22;;;2.92;;
25319;SDS011;13256;49.012;8.610;2023-04-25T01:45:07;2.97;;;2.28;;
25319;SDS011;13256;49.012;8.610;2023-04-25T01:47:34;6.57;;;2.55;;
25319;SDS011;13256;49.012;8.610;2023-04-25T01:50:02;3.85;;;2.60;;
25319;SDS011;13256;49.012;8.610;2023-04-25T01:52:30;5.78;;;2.40;;
25319;SDS011;13256;49.012;8.610;2023-04-25T01:57:33;3.22;;;2.05;;
25319;SDS011;13256;49.012;8.610;2023-04-25T02:00:01;4.32;;;2.65;;
25319;SDS011;13256;49.012;8.610;2023-04-25T02:02:39;5.05;;;2.40;;
25319;SDS011;13256;49.012;8.610;2023-04-25T02:10:54;3.80;;;2.33;;
25319;SDS011;13256;49.012;8.610;2023-04-25T02:13:26;3.65;;;2.75;;
25319;SDS011;13256;49.012;8.610;2023-04-25T02:16:03;3.28;;;2.30;;
25319;SDS011;13256;49.012;8.610;2023-04-25T02:18:32;4.97;;;2.65;;
25319;SDS011;13256;49.012;8.610;2023-04-25T02:20:59;5.68;;;2.55;;
25319;SDS011;13256;49.012;8.610;2023-04-25T02:23:27;4.78;;;2.67;;
25319;SDS011;13256;49.012;8.610;2023-04-25T02:25:54;4.65;;;3.00;;
25319;SDS011;13256;49.012;8.610;2023-04-25T02:28:32;4.70;;;2.95;;
25319;SDS011;13256;49.012;8.610;2023-04-25T02:30:58;3.38;;;2.92;;
25319;SDS011;13256;49.012;8.610;2023-04-25T02:33:25;3.85;;;3.13;;
25319;SDS011;13256;49.012;8.610;2023-04-25T02:35:52;4.30;;;2.88;;
25319;SDS011;13256;49.012;8.610;2023-04-25T02:38:21;3.95;;;3.00;;
25319;SDS011;13256;49.012;8.610;2023-04-25T02:40:48;3.30;;;2.60;;
25319;SDS011;13256;49.012;8.610;2023-04-25T02:43:14;5.25;;;3.35;;
25319;SDS011;13256;49.012;8.610;2023-04-25T02:48:29;5.75;;;3.13;;
25319;SDS011;13256;49.012;8.610;2023-04-25T02:56:46;4.00;;;3.10;;
25319;SDS011;13256;49.012;8.610;2023-04-25T03:02:42;6.07;;;3.50;;
25319;SDS011;13256;49.012;8.610;2023-04-25T03:05:09;15.80;;;6.22;;
25319;SDS011;13256;49.012;8.610;2023-04-25T03:07:38;18.45;;;6.35;;
25319;SDS011;13256;49.012;8.610;2023-04-25T03:15:48;7.28;;;3.50;;
25319;SDS011;13256;49.012;8.610;2023-04-25T03:18:14;3.95;;;3.30;;
25319;SDS011;13256;49.012;8.610;2023-04-25T03:26:16;5.38;;;4.13;;
25319;SDS011;13256;49.012;8.610;2023-04-25T03:31:54;6.00;;;3.55;;
25319;SDS011;13256;49.012;8.610;2023-04-25T03:34:21;5.10;;;3.53;;
25319;SDS011;13256;49.012;8.610;2023-04-25T03:42:52;5.95;;;3.00;;
25319;SDS011;13256;49.012;8.610;2023-04-25T03:45:19;4.35;;;3.10;;
25319;SDS011;13256;49.012;8.610;2023-04-25T03:47:46;3.55;;;2.97;;
25319;SDS011;13256;49.012;8.610;2023-04-25T03:58:32;9.23;;;3.65;;
25319;SDS011;13256;49.012;8.610;2023-04-25T04:04:24;4.10;;;2.78;;
25319;SDS011;13256;49.012;8.610;2023-04-25T04:12:42;7.78;;;3.97;;
25319;SDS011;13256;49.012;8.610;2023-04-25T04:15:08;5.60;;;4.15;;
25319;SDS011;13256;49.012;8.610;2023-04-25T04:23:37;5.28;;;3.92;;
25319;SDS011;13256;49.012;8.610;2023-04-25T04:29:20;6.03;;;3.33;;
25319;SDS011;13256;49.012;8.610;2023-04-25T04:31:57;6.53;;;3.80;;
25319;SDS011;13256;49.012;8.610;2023-04-25T04:34:25;5.95;;;3.78;;
25319;SDS011;13256;49.012;8.610;2023-04-25T04:40:19;5.97;;;3.67;;
25319;SDS011;13256;49.012;8.610;2023-04-25T04:42:55;4.22;;;3.10;;
25319;SDS011;13256;49.012;8.610;2023-04-25T04:45:45;3.70;;;3.10;;
25319;SDS011;13256;49.012;8.610;2023-04-25T04:48:31;5.47;;;3.70;;
25319;SDS011;13256;49.012;8.610;2023-04-25T04:54:51;5.30;;;3.42;;
25319;SDS011;13256;49.012;8.610;2023-04-25T05:03:32;6.35;;;4.22;;
25319;SDS011;13256;49.012;8.610;2023-04-25T05:06:18;7.30;;;4.25;;
25319;SDS011;13256;49.012;8.610;2023-04-25T05:09:12;9.43;;;4.25;;
25319;SDS011;13256;49.012;8.610;2023-04-25T05:14:31;5.60;;;3.97;;
25319;SDS011;13256;49.012;8.610;2023-04-25T05:17:15;4.82;;;3.50;;
25319;SDS011;13256;49.012;8.610;2023-04-25T05:20:01;5.05;;;3.30;;
25319;SDS011;13256;49.012;8.610;2023-04-25T05:22:53;6.30;;;3.42;;
25319;SDS011;13256;49.012;8.610;2023-04-25T05:28:42;5.95;;;3.58;;
25319;SDS011;13256;49.012;8.610;2023-04-25T05:40:53;7.72;;;3.10;;
25319;SDS011;13256;49.012;8.610;2023-04-25T05:46:28;6.40;;;3.35;;
25319;SDS011;13256;49.012;8.610;2023-04-25T05:49:28;5.05;;;2.97;;
25319;SDS011;13256;49.012;8.610;2023-04-25T05:51:58;4.95;;;2.67;;
25319;SDS011;13256;49.012;8.610;2023-04-25T06:00:27;3.60;;;3.08;;
25319;SDS011;13256;49.012;8.610;2023-04-25T06:02:54;5.57;;;2.88;;
25319;SDS011;13256;49.012;8.610;2023-04-25T06:05:25;4.38;;;3.03;;
25319;SDS011;13256;49.012;8.610;2023-04-25T06:07:52;4.53;;;3.35;;
25319;SDS011;13256;49.012;8.610;2023-04-25T06:10:21;4.05;;;3.13;;
25319;SDS011;13256;49.012;8.610;2023-04-25T06:12:48;4.78;;;2.90;;
25319;SDS011;13256;49.012;8.610;2023-04-25T06:15:18;4.78;;;3.50;;
25319;SDS011;13256;49.012;8.610;2023-04-25T06:17:48;5.03;;;3.17;;
25319;SDS011;13256;49.012;8.610;2023-04-25T06:20:15;6.00;;;3.20;;
25319;SDS011;13256;49.012;8.610;2023-04-25T06:22:44;6.55;;;3.13;;
25319;SDS011;13256;49.012;8.610;2023-04-25T06:25:14;3.45;;;2.70;;
25319;SDS011;13256;49.012;8.610;2023-04-25T06:27:47;7.28;;;3.40;;
25319;SDS011;13256;49.012;8.610;2023-04-25T06:30:14;7.38;;;3.55;;
25319;SDS011;13256;49.012;8.610;2023-04-25T06:32:49;3.40;;;2.80;;
25319;SDS011;13256;49.012;8.610;2023-04-25T06:35:16;4.20;;;3.00;;
25319;SDS011;13256;49.012;8.610;2023-04-25T06:37:43;7.22;;;3.00;;
25319;SDS011;13256;49.012;8.610;2023-04-25T06:40:13;5.32;;;3.38;;
25319;SDS011;13256;49.012;8.610;2023-04-25T06:42:47;4.05;;;3.25;;
25319;SDS011;13256;49.012;8.610;2023-04-25T06:45:46;7.50;;;3.65;;
25319;SDS011;13256;49.012;8.610;2023-04-25T06:48:16;5.88;;;3.38;;
25319;SDS011;13256;49.012;8.610;2023-04-25T06:53:20;6.75;;;4.15;;
25319;SDS011;13256;49.012;8.610;2023-04-25T06:55:54;5.88;;;3.67;;
25319;SDS011;13256;49.012;8.610;2023-04-25T06:58:36;12.35;;;4.00;;
25319;SDS011;13256;49.012;8.610;2023-04-25T07:01:19;6.70;;;3.40;;
25319;SDS011;13256;49.012;8.610;2023-04-25T07:03:49;4.60;;;3.30;;
25319;SDS011;13256;49.012;8.610;2023-04-25T07:06:19;7.55;;;3.80;;
25319;SDS011;13256;49.012;8.610;2023-04-25T07:08:46;5.85;;;3.70;;
25319;SDS011;13256;49.012;8.610;2023-04-25T07:11:14;6.07;;;3.80;;
25319;SDS011;13256;49.012;8.610;2023-04-25T07:13:40;6.45;;;3.75;;
25319;SDS011;13256;49.012;8.610;2023-04-25T07:16:11;7.63;;;3.88;;
25319;SDS011;13256;49.012;8.610;2023-04-25T07:18:38;6.90;;;4.07;;
25319;SDS011;13256;49.012;8.610;2023-04-25T07:21:11;8.57;;;5.40;;
25319;SDS011;13256;49.012;8.610;2023-04-25T07:23:41;5.85;;;4.20;;
25319;SDS011;13256;49.012;8.610;2023-04-25T07:26:13;6.78;;;4.63;;
25319;SDS011;13256;49.012;8.610;2023-04-25T07:32:02;10.10;;;4.93;;
25319;SDS011;13256;49.012;8.610;2023-04-25T07:34:31;11.25;;;5.60;;
25319;SDS011;13256;49.012;8.610;2023-04-25T07:36:58;6.63;;;4.28;;
25319;SDS011;13256;49.012;8.610;2023-04-25T07:39:41;10.38;;;7.18;;
25319;SDS011;13256;49.012;8.610;2023-04-25T07:42:08;8.27;;;5.72;;
25319;SDS011;13256;49.012;8.610;2023-04-25T07:44:44;7.28;;;5.07;;
25319;SDS011;13256;49.012;8.610;2023-04-25T07:47:13;7.28;;;4.63;;
25319;SDS011;13256;49.012;8.610;2023-04-25T07:49:45;9.10;;;5.35;;
25319;SDS011;13256;49.012;8.610;2023-04-25T07:52:16;7.85;;;4.63;;
25319;SDS011;13256;49.012;8.610;2023-04-25T07:57:24;9.70;;;5.30;;
25319;SDS011;13256;49.012;8.610;2023-04-25T07:59:56;8.20;;;5.43;;
25319;SDS011;13256;49.012;8.610;2023-04-25T08:02:28;7.47;;;5.00;;
25319;SDS011;13256;49.012;8.610;2023-04-25T08:04:58;8.18;;;5.50;;
25319;SDS011;13256;49.012;8.610;2023-04-25T08:07:28;7.25;;;4.50;;
25319;SDS011;13256;49.012;8.610;2023-04-25T08:10:01;8.45;;;5.80;;
25319;SDS011;13256;49.012;8.610;2023-04-25T08:12:32;7.68;;;5.43;;
25319;SDS011;13256;49.012;8.610;2023-04-25T08:15:03;8.82;;;6.28;;
25319;SDS011;13256;49.012;8.610;2023-04-25T08:17:34;8.77;;;6.13;;
25319;SDS011;13256;49.012;8.610;2023-04-25T08:20:02;10.27;;;6.82;;
25319;SDS011;13256;49.012;8.610;2023-04-25T08:25:22;12.70;;;6.18;;
25319;SDS011;13256;49.012;8.610;2023-04-25T08:27:49;9.60;;;6.13;;
25319;SDS011;13256;49.012;8.610;2023-04-25T08:30:21;11.35;;;6.28;;
25319;SDS011;13256;49.012;8.610;2023-04-25T08:35:47;10.48;;;7.07;;
25319;SDS011;13256;49.012;8.610;2023-04-25T08:38:16;9.07;;;6.20;;
25319;SDS011;13256;49.012;8.610;2023-04-25T08:40:48;12.35;;;7.93;;
25319;SDS011;13256;49.012;8.610;2023-04-25T08:43:20;10.07;;;6.25;;
25319;SDS011;13256;49.012;8.610;2023-04-25T08:45:52;14.60;;;6.80;;
25319;SDS011;13256;49.012;8.610;2023-04-25T08:48:37;11.13;;;7.22;;
25319;SDS011;13256;49.012;8.610;2023-04-25T08:51:08;12.15;;;7.63;;
25319;SDS011;13256;49.012;8.610;2023-04-25T08:53:41;13.65;;;7.65;;
25319;SDS011;13256;49.012;8.610;2023-04-25T08:56:13;12.18;;;7.70;;
25319;SDS011;13256;49.012;8.610;2023-04-25T08:58:44;12.45;;;8.18;;
25319;SDS011;13256;49.012;8.610;2023-04-25T09:01:18;13.88;;;8.52;;
25319;SDS011;13256;49.012;8.610;2023-04-25T09:04:01;16.15;;;9.35;;
25319;SDS011;13256;49.012;8.610;2023-04-25T09:06:29;13.40;;;8.35;;
25319;SDS011;13256;49.012;8.610;2023-04-25T09:09:02;11.70;;;8.20;;
25319;SDS011;13256;49.012;8.610;2023-04-25T09:11:38;14.80;;;8.50;;
25319;SDS011;13256;49.012;8.610;2023-04-25T09:14:12;14.57;;;8.38;;
25319;SDS011;13256;49.012;8.610;2023-04-25T09:17:10;18.98;;;7.68;;
25319;SDS011;13256;49.012;8.610;2023-04-25T09:19:47;8.73;;;6.13;;
25319;SDS011;13256;49.012;8.610;2023-04-25T09:22:21;5.35;;;3.90;;
25319;SDS011;13256;49.012;8.610;2023-04-25T09:24:49;7.85;;;3.15;;
25319;SDS011;13256;49.012;8.610;2023-04-25T09:27:19;4.53;;;3.20;;
25319;SDS011;13256;49.012;8.610;2023-04-25T09:29:57;6.75;;;3.78;;
25319;SDS011;13256;49.012;8.610;2023-04-25T09:32:39;7.70;;;3.70;;
25319;SDS011;13256;49.012;8.610;2023-04-25T09:35:10;8.85;;;4.53;;
25319;SDS011;13256;49.012;8.610;2023-04-25T09:40:57;10.85;;;6.30;;
25319;SDS011;13256;49.012;8.610;2023-04-25T09:43:57;14.88;;;6.35;;
25319;SDS011;13256;49.012;8.610;2023-04-25T09:46:34;8.57;;;5.70;;
25319;SDS011;13256;49.012;8.610;2023-04-25T09:49:11;11.35;;;6.68;;
25319;SDS011;13256;49.012;8.610;2023-04-25T09:52:00;11.60;;;7.35;;
25319;SDS011;13256;49.012;8.610;2023-04-25T09:54:33;19.77;;;8.18;;
25319;SDS011;13256;49.012;8.610;2023-04-25T09:57:12;12.70;;;6.68;;
25319;SDS011;13256;49.012;8.610;2023-04-25T10:00:00;12.68;;;7.03;;
25319;SDS011;13256;49.012;8.610;2023-04-25T10:02:42;12.38;;;6.68;;
25319;SDS011;13256;49.012;8.610;2023-04-25T10:05:29;13.35;;;7.50;;
25319;SDS011;13256;49.012;8.610;2023-04-25T10:08:00;18.80;;;8.88;;
25319;SDS011;13256;49.012;8.610;2023-04-25T10:10:35;14.98;;;7.25;;
25319;SDS011;13256;49.012;8.610;2023-04-25T10:13:06;9.85;;;6.93;;
25319;SDS011;13256;49.012;8.610;2023-04-25T10:18:33;8.73;;;5.00;;
25319;SDS011;13256;49.012;8.610;2023-04-25T10:21:00;8.23;;;5.80;;
25319;SDS011;13256;49.012;8.610;2023-04-25T10:23:29;8.18;;;5.07;;
25319;SDS011;13256;49.012;8.610;2023-04-25T10:25:57;14.68;;;6.18;;
25319;SDS011;13256;49.012;8.610;2023-04-25T10:28:25;10.85;;;5.78;;
25319;SDS011;13256;49.012;8.610;2023-04-25T10:30:58;10.65;;;5.85;;
25319;SDS011;13256;49.012;8.610;2023-04-25T10:33:39;9.57;;;5.00;;
25319;SDS011;13256;49.012;8.610;2023-04-25T10:36:18;11.20;;;5.78;;
25319;SDS011;13256;49.012;8.610;2023-04-25T10:38:52;9.18;;;5.45;;
25319;SDS011;13256;49.012;8.610;2023-04-25T10:41:20;11.10;;;6.07;;
25319;SDS011;13256;49.012;8.610;2023-04-25T10:43:58;10.75;;;5.70;;
25319;SDS011;13256;49.012;8.610;2023-04-25T10:46:27;13.20;;;6.22;;
25319;SDS011;13256;49.012;8.610;2023-04-25T10:49:01;12.00;;;5.57;;
25319;SDS011;13256;49.012;8.610;2023-04-25T10:54:51;12.63;;;6.28;;
25319;SDS011;13256;49.012;8.610;2023-04-25T10:57:26;11.45;;;6.13;;
25319;SDS011;13256;49.012;8.610;2023-04-25T11:00:05;10.55;;;6.72;;
25319;SDS011;13256;49.012;8.610;2023-04-25T11:02:40;9.93;;;6.20;;
25319;SDS011;13256;49.012;8.610;2023-04-25T11:05:23;12.48;;;5.75;;
25319;SDS011;13256;49.012;8.610;2023-04-25T11:07:57;11.82;;;6.05;;
25319;SDS011;13256;49.012;8.610;2023-04-25T11:10:34;9.05;;;5.03;;
25319;SDS011;13256;49.012;8.610;2023-04-25T11:13:07;9.27;;;5.22;;
25319;SDS011;13256;49.012;8.610;2023-04-25T11:15:36;12.60;;;6.47;;
25319;SDS011;13256;49.012;8.610;2023-04-25T11:18:09;8.43;;;5.43;;
25319;SDS011;13256;49.012;8.610;2023-04-25T11:20:38;8.00;;;5.05;;
25319;SDS011;13256;49.012;8.610;2023-04-25T11:23:12;10.13;;;6.25;;
25319;SDS011;13256;49.012;8.610;2023-04-25T11:29:11;9.88;;;5.57;;
25319;SDS011;13256;49.012;8.610;2023-04-25T11:31:43;9.35;;;5.95;;
25319;SDS011;13256;49.012;8.610;2023-04-25T11:34:19;8.13;;;5.47;;
25319;SDS011;13256;49.012;8.610;2023-04-25T11:36:47;6.68;;;4.90;;
25319;SDS011;13256;49.012;8.610;2023-04-25T11:39:13;9.32;;;5.47;;
25319;SDS011;13256;49.012;8.610;2023-04-25T11:41:46;11.77;;;6.07;;
25319;SDS011;13256;49.012;8.610;2023-04-25T11:44:40;11.00;;;5.75;;
25319;SDS011;13256;49.012;8.610;2023-04-25T11:47:06;11.02;;;6.47;;
25319;SDS011;13256;49.012;8.610;2023-04-25T11:49:33;9.82;;;6.40;;
25319;SDS011;13256;49.012;8.610;2023-04-25T11:52:02;11.50;;;6.00;;
25319;SDS011;13256;49.012;8.610;2023-04-25T11:54:36;9.52;;;6.28;;
25319;SDS011;13256;49.012;8.610;2023-04-25T11:57:04;10.52;;;6.43;;
25319;SDS011;13256;49.012;8.610;2023-04-25T12:02:25;8.45;;;5.78;;
25319;SDS011;13256;49.012;8.610;2023-04-25T12:04:53;11.45;;;5.45;;
25319;SDS011;13256;49.012;8.610;2023-04-25T12:07:27;12.20;;;6.20;;
25319;SDS011;13256;49.012;8.610;2023-04-25T12:09:58;10.48;;;5.97;;
25319;SDS011;13256;49.012;8.610;2023-04-25T12:12:34;9.18;;;6.03;;
25319;SDS011;13256;49.012;8.610;2023-04-25T12:15:11;14.98;;;7.72;;
25319;SDS011;13256;49.012;8.610;2023-04-25T12:17:49;18.38;;;10.52;;
25319;SDS011;13256;49.012;8.610;2023-04-25T12:20:25;13.23;;;8.32;;
25319;SDS011;13256;49.012;8.610;2023-04-25T12:22:54;8.75;;;5.75;;
25319;SDS011;13256;49.012;8.610;2023-04-25T12:25:36;10.57;;;6.07;;
25319;SDS011;13256;49.012;8.610;2023-04-25T12:28:18;9.45;;;5.72;;
25319;SDS011;13256;49.012;8.610;2023-04-25T12:33:26;8.98;;;5.45;;
25319;SDS011;13256;49.012;8.610;2023-04-25T12:35:57;8.95;;;5.20;;
25319;SDS011;13256;49.012;8.610;2023-04-25T12:38:37;9.95;;;5.57;;
25319;SDS011;13256;49.012;8.610;2023-04-25T12:41:07;9.52;;;5.80;;
25319;SDS011;13256;49.012;8.610;2023-04-25T12:43:40;11.10;;;6.65;;
25319;SDS011;13256;49.012;8.610;2023-04-25T12:46:08;12.35;;;7.22;;
25319;SDS011;13256;49.012;8.610;2023-04-25T12:49:02;11.02;;;6.30;;
25319;SDS011;13256;49.012;8.610;2023-04-25T12:51:46;15.20;;;7.75;;
25319;SDS011;13256;49.012;8.610;2023-04-25T12:54:13;15.57;;;8.20;;
25319;SDS011;13256;49.012;8.610;2023-04-25T12:56:43;16.73;;;8.23;;
25319;SDS011;13256;49.012;8.610;2023-04-25T12:59:10;19.92;;;8.52;;
25319;SDS011;13256;49.012;8.610;2023-04-25T13:01:39;18.48;;;7.63;;
25319;SDS011;13256;49.012;8.610;2023-04-25T13:04:11;15.20;;;7.65;;
25319;SDS011;13256;49.012;8.610;2023-04-25T13:06:43;11.77;;;6.47;;
25319;SDS011;13256;49.012;8.610;2023-04-25T13:09:12;11.73;;;6.93;;
25319;SDS011;13256;49.012;8.610;2023-04-25T13:11:43;10.73;;;6.33;;
25319;SDS011;13256;49.012;8.610;2023-04-25T13:14:13;15.70;;;6.88;;
25319;SDS011;13256;49.012;8.610;2023-04-25T13:16:41;10.40;;;6.15;;
25319;SDS011;13256;49.012;8.610;2023-04-25T13:19:12;11.75;;;6.90;;
25319;SDS011;13256;49.012;8.610;2023-04-25T13:21:51;13.02;;;8.70;;
25319;SDS011;13256;49.012;8.610;2023-04-25T13:33:24;12.52;;;6.50;;
25319;SDS011;13256;49.012;8.610;2023-04-25T13:35:52;11.20;;;6.38;;
25319;SDS011;13256;49.012;8.610;2023-04-25T13:38:23;10.82;;;6.38;;
25319;SDS011;13256;49.012;8.610;2023-04-25T13:40:54;11.25;;;5.78;;
25319;SDS011;13256;49.012;8.610;2023-04-25T13:43:25;12.55;;;6.15;;
25319;SDS011;13256;49.012;8.610;2023-04-25T13:45:52;8.23;;;5.40;;
25319;SDS011;13256;49.012;8.610;2023-04-25T13:48:24;12.52;;;5.82;;
25319;SDS011;13256;49.012;8.610;2023-04-25T13:50:53;8.10;;;5.47;;
25319;SDS011;13256;49.012;8.610;2023-04-25T13:53:20;12.10;;;7.07;;
25319;SDS011;13256;49.012;8.610;2023-04-25T13:55:47;7.28;;;4.22;;
25319;SDS011;13256;49.012;8.610;2023-04-25T14:00:49;8.68;;;4.63;;
25319;SDS011;13256;49.012;8.610;2023-04-25T14:03:20;8.05;;;4.60;;
25319;SDS011;13256;49.012;8.610;2023-04-25T14:05:50;8.85;;;5.18;;
25319;SDS011;13256;49.012;8.610;2023-04-25T14:08:17;6.28;;;4.57;;
25319;SDS011;13256;49.012;8.610;2023-04-25T14:10:45;9.60;;;4.82;;
25319;SDS011;13256;49.012;8.610;2023-04-25T14:13:13;12.40;;;5.20;;
25319;SDS011;13256;49.012;8.610;2023-04-25T14:15:42;8.05;;;5.13;;
25319;SDS011;13256;49.012;8.610;2023-04-25T14:18:17;7.18;;;3.90;;
25319;SDS011;13256;49.012;8.610;2023-04-25T14:20:46;7.50;;;4.30;;
25319;SDS011;13256;49.012;8.610;2023-04-25T14:23:18;9.20;;;4.78;;
25319;SDS011;13256;49.012;8.610;2023-04-25T14:25:45;7.30;;;4.43;;
25319;SDS011;13256;49.012;8.610;2023-04-25T14:28:14;8.60;;;4.72;;
25319;SDS011;13256;49.012;8.610;2023-04-25T14:30:48;9.15;;;4.70;;
25319;SDS011;13256;49.012;8.610;2023-04-25T14:33:17;10.23;;;4.90;;
25319;SDS011;13256;49.012;8.610;2023-04-25T14:35:54;6.15;;;4.05;;
25319;SDS011;13256;49.012;8.610;2023-04-25T14:38:23;7.20;;;3.78;;
25319;SDS011;13256;49.012;8.610;2023-04-25T14:40:52;8.35;;;4.20;;
25319;SDS011;13256;49.012;8.610;2023-04-25T14:43:20;6.57;;;3.75;;
25319;SDS011;13256;49.012;8.610;2023-04-25T14:45:46;7.57;;;3.80;;
25319;SDS011;13256;49.012;8.610;2023-04-25T14:48:17;6.13;;;4.22;;
25319;SDS011;13256;49.012;8.610;2023-04-25T14:50:45;6.75;;;4.00;;
25319;SDS011;13256;49.012;8.610;2023-04-25T14:53:12;5.85;;;3.80;;
25319;SDS011;13256;49.012;8.610;2023-04-25T14:55:47;6.50;;;3.60;;
25319;SDS011;13256;49.012;8.610;2023-04-25T15:00:44;7.57;;;3.80;;
25319;SDS011;13256;49.012;8.610;2023-04-25T15:03:14;7.07;;;4.03;;
25319;SDS011;13256;49.012;8.610;2023-04-25T15:05:46;5.72;;;3.50;;
25319;SDS011;13256;49.012;8.610;2023-04-25T15:08:14;8.43;;;3.40;;
25319;SDS011;13256;49.012;8.610;2023-04-25T15:10:46;4.82;;;3.08;;
25319;SDS011;13256;49.012;8.610;2023-04-25T15:13:18;9.23;;;3.40;;
25319;SDS011;13256;49.012;8.610;2023-04-25T15:15:49;8.00;;;3.97;;
25319;SDS011;13256;49.012;8.610;2023-04-25T15:20:50;8.52;;;4.15;;
25319;SDS011;13256;49.012;8.610;2023-04-25T15:23:24;4.85;;;3.35;;
25319;SDS011;13256;49.012;8.610;2023-04-25T15:25:55;8.35;;;4.03;;
25319;SDS011;13256;49.012;8.610;2023-04-25T15:28:25;5.38;;;3.50;;
25319;SDS011;13256;49.012;8.610;2023-04-25T15:31:00;10.48;;;4.05;;
25319;SDS011;13256;49.012;8.610;2023-04-25T15:33:27;5.45;;;3.78;;
25319;SDS011;13256;49.012;8.610;2023-04-25T15:35:54;8.52;;;4.05;;
25319;SDS011;13256;49.012;8.610;2023-04-25T15:38:21;5.47;;;3.70;;
25319;SDS011;13256;49.012;8.610;2023-04-25T15:40:48;6.88;;;3.53;;
25319;SDS011;13256;49.012;8.610;2023-04-25T15:43:19;5.07;;;3.25;;
25319;SDS011;13256;49.012;8.610;2023-04-25T15:45:46;5.63;;;3.78;;
25319;SDS011;13256;49.012;8.610;2023-04-25T15:48:16;6.38;;;3.80;;
25319;SDS011;13256;49.012;8.610;2023-04-25T15:50:47;4.82;;;3.38;;
25319;SDS011;13256;49.012;8.610;2023-04-25T16:13:35;8.23;;;3.85;;
25319;SDS011;13256;49.012;8.610;2023-04-25T16:16:02;6.75;;;4.55;;
25319;SDS011;13256;49.012;8.610;2023-04-25T16:18:28;8.32;;;3.70;;
25319;SDS011;13256;49.012;8.610;2023-04-25T16:20:58;9.13;;;3.80;;
25319;SDS011;13256;49.012;8.610;2023-04-25T16:23:26;8.38;;;4.70;;
25319;SDS011;13256;49.012;8.610;2023-04-25T16:25:53;11.23;;;5.20;;
25319;SDS011;13256;49.012;8.610;2023-04-25T16:28:21;13.10;;;5.03;;
25319;SDS011;13256;49.012;8.610;2023-04-25T16:30:49;12.07;;;4.57;;
25319;SDS011;13256;49.012;8.610;2023-04-25T16:33:16;9.70;;;4.47;;
25319;SDS011;13256;49.012;8.610;2023-04-25T16:35:46;8.20;;;4.22;;
25319;SDS011;13256;49.012;8.610;2023-04-25T16:38:18;7.75;;;3.80;;
25319;SDS011;13256;49.012;8.610;2023-04-25T16:40:44;7.47;;;3.92;;
25319;SDS011;13256;49.012;8.610;2023-04-25T16:43:12;7.10;;;4.18;;
25319;SDS011;13256;49.012;8.610;2023-04-25T16:45:39;7.80;;;3.65;;
25319;SDS011;13256;49.012;8.610;2023-04-25T16:48:38;10.82;;;5.15;;
25319;SDS011;13256;49.012;8.610;2023-04-25T16:51:04;14.98;;;6.53;;
25319;SDS011;13256;49.012;8.610;2023-04-25T16:56:27;7.87;;;4.33;;
25319;SDS011;13256;49.012;8.610;2023-04-25T17:13:40;9.05;;;4.68;;
25319;SDS011;13256;49.012;8.610;2023-04-25T17:16:34;7.63;;;4.28;;
25319;SDS011;13256;49.012;8.610;2023-04-25T17:19:07;8.57;;;4.60;;
25319;SDS011;13256;49.012;8.610;2023-04-25T17:36:12;14.32;;;8.95;;
25319;SDS011;13256;49.012;8.610;2023-04-25T17:38:40;20.75;;;10.27;;
25319;SDS011;13256;49.012;8.610;2023-04-25T17:41:07;28.20;;;13.00;;
25319;SDS011;13256;49.012;8.610;2023-04-25T17:43:35;22.45;;;12.18;;
25319;SDS011;13256;49.012;8.610;2023-04-25T17:46:09;14.30;;;7.47;;
25319;SDS011;13256;49.012;8.610;2023-04-25T17:51:33;9.15;;;5.28;;
25319;SDS011;13256;49.012;8.610;2023-04-25T17:54:00;10.07;;;5.38;;
25319;SDS011;13256;49.012;8.610;2023-04-25T17:56:30;10.63;;;4.97;;
25319;SDS011;13256;49.012;8.610;2023-04-25T17:59:00;7.55;;;5.22;;
25319;SDS011;13256;49.012;8.610;2023-04-25T18:01:29;10.95;;;5.03;;
25319;SDS011;13256;49.012;8.610;2023-04-25T18:03:56;9.32;;;4.65;;
25319;SDS011;13256;49.012;8.610;2023-04-25T18:06:24;9.15;;;5.03;;
25319;SDS011;13256;49.012;8.610;2023-04-25T18:08:53;11.52;;;5.88;;
25319;SDS011;13256;49.012;8.610;2023-04-25T18:11:21;11.45;;;5.97;;
25319;SDS011;13256;49.012;8.610;2023-04-25T18:13:48;10.20;;;5.28;;
25319;SDS011;13256;49.012;8.610;2023-04-25T18:16:15;8.02;;;5.32;;
25319;SDS011;13256;49.012;8.610;2023-04-25T18:18:42;11.77;;;5.50;;
25319;SDS011;13256;49.012;8.610;2023-04-25T18:21:11;11.30;;;6.22;;
25319;SDS011;13256;49.012;8.610;2023-04-25T18:23:40;13.45;;;7.13;;
25319;SDS011;13256;49.012;8.610;2023-04-25T18:26:12;16.77;;;8.95;;
25319;SDS011;13256;49.012;8.610;2023-04-25T18:28:41;14.65;;;8.18;;
25319;SDS011;13256;49.012;8.610;2023-04-25T18:31:11;11.13;;;6.40;;
25319;SDS011;13256;49.012;8.610;2023-04-25T18:33:38;9.38;;;6.22;;
25319;SDS011;13256;49.012;8.610;2023-04-25T18:42:05;17.98;;;13.63;;
25319;SDS011;13256;49.012;8.610;2023-04-25T18:44:59;15.38;;;8.48;;
25319;SDS011;13256;49.012;8.610;2023-04-25T18:47:28;19.52;;;8.85;;
25319;SDS011;13256;49.012;8.610;2023-04-25T18:49:55;13.80;;;7.03;;
25319;SDS011;13256;49.012;8.610;2023-04-25T18:52:22;11.32;;;6.60;;
25319;SDS011;13256;49.012;8.610;2023-04-25T18:54:51;11.40;;;6.38;;
25319;SDS011;13256;49.012;8.610;2023-04-25T18:57:18;9.88;;;6.55;;
25319;SDS011;13256;49.012;8.610;2023-04-25T18:59:50;11.55;;;6.10;;
25319;SDS011;13256;49.012;8.610;2023-04-25T19:02:19;14.02;;;7.13;;
25319;SDS011;13256;49.012;8.610;2023-04-25T19:04:55;16.42;;;8.05;;
25319;SDS011;13256;49.012;8.610;2023-04-25T19:07:24;13.93;;;6.97;;